sensor_id;sensor_type;location;lat;lon;timestamp;P1;durP1;ratioP1;P2;durP2;ratioP2
6414;SDS011;3240;48.790;9.210;2022-09-25T00:00:06;16.60;;;12.80;;
6414;SDS011;3240;48.790;9.210;2022-09-25T00:02:34;19.53;;;14.10;;
6414;SDS011;3240;48.790;9.210;2022-09-25T00:05:03;18.23;;;14.70;;
6414;SDS011;3240;48.790;9.210;2022-09-25T00:07:31;18.83;;;13.50;;
6414;SDS011;3240;48.790;9.210;2022-09-25T00:09:59;17.87;;;13.23;;
6414;SDS011;3240;48.790;9.210;2022-09-25T00:12:27;19.37;;;14.10;;
6414;SDS011;3240;48.790;9.210;2022-09-25T00:14:55;22.83;;;14.63;;
6414;SDS011;3240;48.790;9.210;2022-09-25T00:17:23;21.33;;;13.87;;
6414;SDS011;3240;48.790;9.210;2022-09-25T00:19:51;21.97;;;14.77;;
6414;SDS011;3240;48.790;9.210;2022-09-25T00:22:20;18.23;;;13.67;;
6414;SDS011;3240;48.790;9.210;2022-09-25T00:24:47;19.77;;;13.53;;
6414;SDS011;3240;48.790;9.210;2022-09-25T00:27:15;18.63;;;13.70;;
6414;SDS011;3240;48.790;9.210;2022-09-25T00:29:43;18.00;;;13.37;;
6414;SDS011;3240;48.790;9.210;2022-09-25T00:32:11;21.37;;;15.33;;
6414;SDS011;3240;48.790;9.210;2022-09-25T00:34:39;21.10;;;15.40;;
6414;SDS011;3240;48.790;9.210;2022-09-25T00:37:07;21.93;;;15.03;;
6414;SDS011;3240;48.790;9.210;2022-09-25T00:39:35;23.93;;;15.00;;
6414;SDS011;3240;48.790;9.210;2022-09-25T00:42:03;21.00;;;14.53;;
6414;SDS011;3240;48.790;9.210;2022-09-25T00:47:05;25.20;;;15.13;;
6414;SDS011;3240;48.790;9.210;2022-09-25T00:49:33;25.73;;;15.40;;
6414;SDS011;3240;48.790;9.210;2022-09-25T00:52:02;20.90;;;15.70;;
6414;SDS011;3240;48.790;9.210;2022-09-25T00:54:31;23.03;;;15.77;;
6414;SDS011;3240;48.790;9.210;2022-09-25T00:56:59;20.80;;;14.77;;
6414;SDS011;3240;48.790;9.210;2022-09-25T00:59:28;22.20;;;16.27;;
6414;SDS011;3240;48.790;9.210;2022-09-25T01:01:55;20.63;;;15.50;;
6414;SDS011;3240;48.790;9.210;2022-09-25T01:04:23;18.70;;;14.70;;
6414;SDS011;3240;48.790;9.210;2022-09-25T01:06:51;21.27;;;15.53;;
6414;SDS011;3240;48.790;9.210;2022-09-25T01:09:19;20.97;;;13.73;;
6414;SDS011;3240;48.790;9.210;2022-09-25T01:11:47;19.37;;;13.57;;
6414;SDS011;3240;48.790;9.210;2022-09-25T01:14:15;22.17;;;13.80;;
6414;SDS011;3240;48.790;9.210;2022-09-25T01:16:46;21.97;;;13.80;;
6414;SDS011;3240;48.790;9.210;2022-09-25T01:19:19;18.40;;;13.10;;
6414;SDS011;3240;48.790;9.210;2022-09-25T01:21:50;19.47;;;14.37;;
6414;SDS011;3240;48.790;9.210;2022-09-25T01:24:50;21.60;;;17.30;;
6414;SDS011;3240;48.790;9.210;2022-09-25T01:27:05;17.77;;;13.27;;
6414;SDS011;3240;48.790;9.210;2022-09-25T01:29:30;19.47;;;14.57;;
6414;SDS011;3240;48.790;9.210;2022-09-25T01:31:59;22.33;;;14.17;;
6414;SDS011;3240;48.790;9.210;2022-09-25T01:34:37;19.60;;;15.00;;
6414;SDS011;3240;48.790;9.210;2022-09-25T01:37:11;20.67;;;14.03;;
6414;SDS011;3240;48.790;9.210;2022-09-25T01:39:36;20.50;;;14.97;;
6414;SDS011;3240;48.790;9.210;2022-09-25T01:42:05;22.10;;;13.50;;
6414;SDS011;3240;48.790;9.210;2022-09-25T01:44:33;19.40;;;14.63;;
6414;SDS011;3240;48.790;9.210;2022-09-25T01:47:03;17.83;;;13.23;;
6414;SDS011;3240;48.790;9.210;2022-09-25T01:49:30;21.90;;;15.10;;
6414;SDS011;3240;48.790;9.210;2022-09-25T01:51:57;23.40;;;15.97;;
6414;SDS011;3240;48.790;9.210;2022-09-25T01:54:27;20.10;;;13.80;;
6414;SDS011;3240;48.790;9.210;2022-09-25T01:56:57;23.07;;;14.07;;
6414;SDS011;3240;48.790;9.210;2022-09-25T01:59:29;18.60;;;13.63;;
6414;SDS011;3240;48.790;9.210;2022-09-25T02:01:55;20.10;;;14.53;;
6414;SDS011;3240;48.790;9.210;2022-09-25T02:04:25;22.30;;;14.70;;
6414;SDS011;3240;48.790;9.210;2022-09-25T02:06:52;20.50;;;14.50;;
6414;SDS011;3240;48.790;9.210;2022-09-25T02:09:24;24.20;;;14.30;;
6414;SDS011;3240;48.790;9.210;2022-09-25T02:11:50;18.80;;;13.53;;
6414;SDS011;3240;48.790;9.210;2022-09-25T02:14:19;20.57;;;15.00;;
6414;SDS011;3240;48.790;9.210;2022-09-25T02:16:47;23.13;;;16.20;;
6414;SDS011;3240;48.790;9.210;2022-09-25T02:19:14;22.80;;;15.23;;
6414;SDS011;3240;48.790;9.210;2022-09-25T02:21:49;23.10;;;15.87;;
6414;SDS011;3240;48.790;9.210;2022-09-25T02:26:59;27.23;;;18.70;;
6414;SDS011;3240;48.790;9.210;2022-09-25T02:29:27;29.70;;;18.93;;
6414;SDS011;3240;48.790;9.210;2022-09-25T02:32:01;27.13;;;19.03;;
6414;SDS011;3240;48.790;9.210;2022-09-25T02:34:26;28.10;;;19.10;;
6414;SDS011;3240;48.790;9.210;2022-09-25T02:36:54;32.77;;;21.43;;
6414;SDS011;3240;48.790;9.210;2022-09-25T02:39:22;30.70;;;20.50;;
6414;SDS011;3240;48.790;9.210;2022-09-25T02:41:56;33.37;;;20.50;;
6414;SDS011;3240;48.790;9.210;2022-09-25T02:44:25;31.60;;;19.47;;
6414;SDS011;3240;48.790;9.210;2022-09-25T02:46:52;28.93;;;20.13;;
6414;SDS011;3240;48.790;9.210;2022-09-25T02:49:21;28.90;;;19.20;;
6414;SDS011;3240;48.790;9.210;2022-09-25T02:51:46;31.00;;;19.97;;
6414;SDS011;3240;48.790;9.210;2022-09-25T02:54:18;35.43;;;20.93;;
6414;SDS011;3240;48.790;9.210;2022-09-25T02:56:47;28.40;;;19.10;;
6414;SDS011;3240;48.790;9.210;2022-09-25T02:59:17;30.40;;;21.40;;
6414;SDS011;3240;48.790;9.210;2022-09-25T03:01:42;28.07;;;18.77;;
6414;SDS011;3240;48.790;9.210;2022-09-25T03:04:10;26.50;;;17.30;;
6414;SDS011;3240;48.790;9.210;2022-09-25T03:06:39;26.03;;;17.07;;
6414;SDS011;3240;48.790;9.210;2022-09-25T03:09:06;28.20;;;16.80;;
6414;SDS011;3240;48.790;9.210;2022-09-25T03:11:35;27.03;;;16.53;;
6414;SDS011;3240;48.790;9.210;2022-09-25T03:14:02;26.60;;;16.77;;
6414;SDS011;3240;48.790;9.210;2022-09-25T03:16:46;26.53;;;16.33;;
6414;SDS011;3240;48.790;9.210;2022-09-25T03:19:14;26.70;;;16.53;;
6414;SDS011;3240;48.790;9.210;2022-09-25T03:21:41;25.20;;;16.57;;
6414;SDS011;3240;48.790;9.210;2022-09-25T03:24:09;27.07;;;17.23;;
6414;SDS011;3240;48.790;9.210;2022-09-25T03:26:37;21.40;;;15.53;;
6414;SDS011;3240;48.790;9.210;2022-09-25T03:29:06;25.63;;;16.00;;
6414;SDS011;3240;48.790;9.210;2022-09-25T03:31:33;25.77;;;16.73;;
6414;SDS011;3240;48.790;9.210;2022-09-25T03:34:01;26.37;;;17.57;;
6414;SDS011;3240;48.790;9.210;2022-09-25T03:36:30;24.43;;;17.30;;
6414;SDS011;3240;48.790;9.210;2022-09-25T03:38:58;28.87;;;17.50;;
6414;SDS011;3240;48.790;9.210;2022-09-25T03:41:27;27.53;;;18.20;;
6414;SDS011;3240;48.790;9.210;2022-09-25T03:43:54;28.47;;;18.07;;
6414;SDS011;3240;48.790;9.210;2022-09-25T03:46:23;24.17;;;16.23;;
6414;SDS011;3240;48.790;9.210;2022-09-25T03:48:50;28.20;;;18.50;;
6414;SDS011;3240;48.790;9.210;2022-09-25T03:51:18;29.87;;;17.03;;
6414;SDS011;3240;48.790;9.210;2022-09-25T03:53:46;23.50;;;16.70;;
6414;SDS011;3240;48.790;9.210;2022-09-25T03:56:16;25.20;;;16.47;;
6414;SDS011;3240;48.790;9.210;2022-09-25T03:58:43;28.87;;;17.90;;
6414;SDS011;3240;48.790;9.210;2022-09-25T04:01:12;25.87;;;17.10;;
6414;SDS011;3240;48.790;9.210;2022-09-25T04:03:40;25.07;;;16.87;;
6414;SDS011;3240;48.790;9.210;2022-09-25T04:06:07;26.77;;;16.47;;
6414;SDS011;3240;48.790;9.210;2022-09-25T04:08:36;28.17;;;18.30;;
6414;SDS011;3240;48.790;9.210;2022-09-25T04:11:04;32.07;;;16.70;;
6414;SDS011;3240;48.790;9.210;2022-09-25T04:13:33;26.70;;;16.57;;
6414;SDS011;3240;48.790;9.210;2022-09-25T04:16:00;27.47;;;16.90;;
6414;SDS011;3240;48.790;9.210;2022-09-25T04:18:28;27.90;;;15.43;;
6414;SDS011;3240;48.790;9.210;2022-09-25T04:20:56;27.07;;;16.07;;
6414;SDS011;3240;48.790;9.210;2022-09-25T04:23:24;25.40;;;16.63;;
6414;SDS011;3240;48.790;9.210;2022-09-25T04:25:52;28.40;;;15.80;;
6414;SDS011;3240;48.790;9.210;2022-09-25T04:28:20;28.30;;;17.30;;
6414;SDS011;3240;48.790;9.210;2022-09-25T04:30:48;30.67;;;17.05;;
6414;SDS011;3240;48.790;9.210;2022-09-25T04:33:16;30.20;;;17.30;;
6414;SDS011;3240;48.790;9.210;2022-09-25T04:35:50;32.50;;;17.70;;
6414;SDS011;3240;48.790;9.210;2022-09-25T04:38:18;29.90;;;17.40;;
6414;SDS011;3240;48.790;9.210;2022-09-25T04:40:46;28.57;;;16.47;;
6414;SDS011;3240;48.790;9.210;2022-09-25T04:43:14;30.63;;;17.87;;
6414;SDS011;3240;48.790;9.210;2022-09-25T04:45:42;27.70;;;16.63;;
6414;SDS011;3240;48.790;9.210;2022-09-25T04:48:10;28.90;;;16.00;;
6414;SDS011;3240;48.790;9.210;2022-09-25T04:50:38;37.40;;;18.10;;
6414;SDS011;3240;48.790;9.210;2022-09-25T04:53:06;28.53;;;16.03;;
6414;SDS011;3240;48.790;9.210;2022-09-25T04:55:34;27.13;;;16.03;;
6414;SDS011;3240;48.790;9.210;2022-09-25T04:58:02;27.30;;;17.27;;
6414;SDS011;3240;48.790;9.210;2022-09-25T05:00:30;29.03;;;16.57;;
6414;SDS011;3240;48.790;9.210;2022-09-25T05:03:00;23.77;;;15.30;;
6414;SDS011;3240;48.790;9.210;2022-09-25T05:05:26;27.47;;;16.43;;
6414;SDS011;3240;48.790;9.210;2022-09-25T05:07:55;27.47;;;15.80;;
6414;SDS011;3240;48.790;9.210;2022-09-25T05:10:23;29.27;;;16.00;;
6414;SDS011;3240;48.790;9.210;2022-09-25T05:12:54;30.13;;;16.20;;
6414;SDS011;3240;48.790;9.210;2022-09-25T05:15:21;26.03;;;15.30;;
6414;SDS011;3240;48.790;9.210;2022-09-25T05:17:49;26.77;;;15.73;;
6414;SDS011;3240;48.790;9.210;2022-09-25T05:20:17;29.30;;;15.10;;
6414;SDS011;3240;48.790;9.210;2022-09-25T05:22:45;28.13;;;16.10;;
6414;SDS011;3240;48.790;9.210;2022-09-25T05:25:13;24.83;;;14.00;;
6414;SDS011;3240;48.790;9.210;2022-09-25T05:27:41;28.23;;;15.07;;
6414;SDS011;3240;48.790;9.210;2022-09-25T05:30:10;21.87;;;14.47;;
6414;SDS011;3240;48.790;9.210;2022-09-25T05:32:38;24.70;;;13.97;;
6414;SDS011;3240;48.790;9.210;2022-09-25T05:35:06;26.40;;;14.53;;
6414;SDS011;3240;48.790;9.210;2022-09-25T05:37:34;24.80;;;14.00;;
6414;SDS011;3240;48.790;9.210;2022-09-25T05:40:02;24.70;;;14.13;;
6414;SDS011;3240;48.790;9.210;2022-09-25T05:42:30;22.10;;;12.97;;
6414;SDS011;3240;48.790;9.210;2022-09-25T05:44:58;20.37;;;13.10;;
6414;SDS011;3240;48.790;9.210;2022-09-25T05:47:26;20.80;;;12.67;;
6414;SDS011;3240;48.790;9.210;2022-09-25T05:49:54;20.47;;;11.67;;
6414;SDS011;3240;48.790;9.210;2022-09-25T05:52:22;19.07;;;11.60;;
6414;SDS011;3240;48.790;9.210;2022-09-25T05:54:50;17.60;;;10.53;;
6414;SDS011;3240;48.790;9.210;2022-09-25T05:57:18;14.87;;;9.83;;
6414;SDS011;3240;48.790;9.210;2022-09-25T05:59:46;17.57;;;11.53;;
6414;SDS011;3240;48.790;9.210;2022-09-25T06:02:15;15.37;;;10.13;;
6414;SDS011;3240;48.790;9.210;2022-09-25T06:04:43;17.67;;;9.73;;
6414;SDS011;3240;48.790;9.210;2022-09-25T06:07:11;15.30;;;9.90;;
6414;SDS011;3240;48.790;9.210;2022-09-25T06:09:39;16.63;;;10.07;;
6414;SDS011;3240;48.790;9.210;2022-09-25T06:12:07;16.73;;;10.80;;
6414;SDS011;3240;48.790;9.210;2022-09-25T06:14:35;16.57;;;10.67;;
6414;SDS011;3240;48.790;9.210;2022-09-25T06:17:03;16.10;;;9.93;;
6414;SDS011;3240;48.790;9.210;2022-09-25T06:19:31;15.60;;;9.30;;
6414;SDS011;3240;48.790;9.210;2022-09-25T06:21:59;17.43;;;10.17;;
6414;SDS011;3240;48.790;9.210;2022-09-25T06:24:27;16.53;;;10.37;;
6414;SDS011;3240;48.790;9.210;2022-09-25T06:26:55;15.10;;;9.77;;
6414;SDS011;3240;48.790;9.210;2022-09-25T06:29:23;13.83;;;9.67;;
6414;SDS011;3240;48.790;9.210;2022-09-25T06:31:51;15.57;;;9.90;;
6414;SDS011;3240;48.790;9.210;2022-09-25T06:34:19;18.30;;;11.00;;
6414;SDS011;3240;48.790;9.210;2022-09-25T06:36:47;15.47;;;9.73;;
6414;SDS011;3240;48.790;9.210;2022-09-25T06:39:15;15.70;;;9.40;;
6414;SDS011;3240;48.790;9.210;2022-09-25T06:41:43;15.13;;;10.57;;
6414;SDS011;3240;48.790;9.210;2022-09-25T06:44:11;14.63;;;9.43;;
6414;SDS011;3240;48.790;9.210;2022-09-25T06:46:39;20.40;;;9.57;;
6414;SDS011;3240;48.790;9.210;2022-09-25T06:49:07;13.73;;;9.37;;
6414;SDS011;3240;48.790;9.210;2022-09-25T06:51:35;13.10;;;9.57;;
6414;SDS011;3240;48.790;9.210;2022-09-25T06:56:37;13.87;;;9.17;;
6414;SDS011;3240;48.790;9.210;2022-09-25T06:59:05;13.00;;;9.03;;
6414;SDS011;3240;48.790;9.210;2022-09-25T07:01:33;14.50;;;8.77;;
6414;SDS011;3240;48.790;9.210;2022-09-25T07:04:01;14.90;;;10.13;;
6414;SDS011;3240;48.790;9.210;2022-09-25T07:06:29;13.80;;;9.20;;
6414;SDS011;3240;48.790;9.210;2022-09-25T07:08:57;14.70;;;9.00;;
6414;SDS011;3240;48.790;9.210;2022-09-25T07:11:26;14.43;;;9.07;;
6414;SDS011;3240;48.790;9.210;2022-09-25T07:13:53;12.07;;;8.97;;
6414;SDS011;3240;48.790;9.210;2022-09-25T07:16:22;13.60;;;9.07;;
6414;SDS011;3240;48.790;9.210;2022-09-25T07:18:51;13.80;;;9.00;;
6414;SDS011;3240;48.790;9.210;2022-09-25T07:21:18;13.07;;;8.93;;
6414;SDS011;3240;48.790;9.210;2022-09-25T07:23:47;14.40;;;9.50;;
6414;SDS011;3240;48.790;9.210;2022-09-25T07:26:16;13.70;;;9.20;;
6414;SDS011;3240;48.790;9.210;2022-09-25T07:28:43;14.27;;;8.87;;
6414;SDS011;3240;48.790;9.210;2022-09-25T07:31:15;12.50;;;8.20;;
6414;SDS011;3240;48.790;9.210;2022-09-25T07:33:41;15.57;;;9.00;;
6414;SDS011;3240;48.790;9.210;2022-09-25T07:36:09;13.40;;;8.87;;
6414;SDS011;3240;48.790;9.210;2022-09-25T07:38:38;13.57;;;9.60;;
6414;SDS011;3240;48.790;9.210;2022-09-25T07:41:06;12.00;;;8.70;;
6414;SDS011;3240;48.790;9.210;2022-09-25T07:43:34;13.80;;;10.32;;
6414;SDS011;3240;48.790;9.210;2022-09-25T07:46:02;15.57;;;10.33;;
6414;SDS011;3240;48.790;9.210;2022-09-25T07:48:30;17.37;;;10.67;;
6414;SDS011;3240;48.790;9.210;2022-09-25T07:50:58;14.63;;;9.60;;
6414;SDS011;3240;48.790;9.210;2022-09-25T07:53:26;17.90;;;10.80;;
6414;SDS011;3240;48.790;9.210;2022-09-25T07:55:57;15.53;;;9.50;;
6414;SDS011;3240;48.790;9.210;2022-09-25T07:58:25;17.27;;;11.43;;
6414;SDS011;3240;48.790;9.210;2022-09-25T08:00:53;18.30;;;10.40;;
6414;SDS011;3240;48.790;9.210;2022-09-25T08:03:21;18.17;;;11.60;;
6414;SDS011;3240;48.790;9.210;2022-09-25T08:05:56;14.90;;;9.53;;
6414;SDS011;3240;48.790;9.210;2022-09-25T08:08:17;18.80;;;11.10;;
6414;SDS011;3240;48.790;9.210;2022-09-25T08:10:45;19.00;;;10.83;;
6414;SDS011;3240;48.790;9.210;2022-09-25T08:13:13;19.00;;;11.50;;
6414;SDS011;3240;48.790;9.210;2022-09-25T08:15:41;18.90;;;11.77;;
6414;SDS011;3240;48.790;9.210;2022-09-25T08:18:09;17.07;;;11.10;;
6414;SDS011;3240;48.790;9.210;2022-09-25T08:20:37;16.97;;;11.00;;
6414;SDS011;3240;48.790;9.210;2022-09-25T08:23:05;18.53;;;11.60;;
6414;SDS011;3240;48.790;9.210;2022-09-25T08:25:33;15.83;;;10.80;;
6414;SDS011;3240;48.790;9.210;2022-09-25T08:28:01;16.60;;;11.63;;
6414;SDS011;3240;48.790;9.210;2022-09-25T08:30:29;19.07;;;11.77;;
6414;SDS011;3240;48.790;9.210;2022-09-25T08:32:57;20.70;;;12.00;;
6414;SDS011;3240;48.790;9.210;2022-09-25T08:35:25;17.40;;;12.03;;
6414;SDS011;3240;48.790;9.210;2022-09-25T08:37:53;17.20;;;11.73;;
6414;SDS011;3240;48.790;9.210;2022-09-25T08:40:24;17.33;;;10.93;;
6414;SDS011;3240;48.790;9.210;2022-09-25T08:42:49;18.00;;;12.20;;
6414;SDS011;3240;48.790;9.210;2022-09-25T08:45:26;18.47;;;11.40;;
6414;SDS011;3240;48.790;9.210;2022-09-25T08:47:58;18.93;;;12.10;;
6414;SDS011;3240;48.790;9.210;2022-09-25T08:50:32;17.97;;;11.90;;
6414;SDS011;3240;48.790;9.210;2022-09-25T08:53:03;17.60;;;11.17;;
6414;SDS011;3240;48.790;9.210;2022-09-25T08:55:32;16.23;;;11.23;;
6414;SDS011;3240;48.790;9.210;2022-09-25T08:58:05;17.77;;;12.88;;
6414;SDS011;3240;48.790;9.210;2022-09-25T09:00:33;18.17;;;11.80;;
6414;SDS011;3240;48.790;9.210;2022-09-25T09:03:01;15.23;;;11.57;;
6414;SDS011;3240;48.790;9.210;2022-09-25T09:05:30;16.27;;;11.50;;
6414;SDS011;3240;48.790;9.210;2022-09-25T09:07:59;16.37;;;11.50;;
6414;SDS011;3240;48.790;9.210;2022-09-25T09:10:32;16.17;;;10.87;;
6414;SDS011;3240;48.790;9.210;2022-09-25T09:13:00;18.53;;;12.07;;
6414;SDS011;3240;48.790;9.210;2022-09-25T09:15:28;16.40;;;10.40;;
6414;SDS011;3240;48.790;9.210;2022-09-25T09:17:54;15.77;;;11.57;;
6414;SDS011;3240;48.790;9.210;2022-09-25T09:20:26;17.98;;;12.00;;
6414;SDS011;3240;48.790;9.210;2022-09-25T09:22:51;14.20;;;10.00;;
6414;SDS011;3240;48.790;9.210;2022-09-25T09:25:35;13.53;;;9.47;;
6414;SDS011;3240;48.790;9.210;2022-09-25T09:30:40;12.57;;;8.03;;
6414;SDS011;3240;48.790;9.210;2022-09-25T09:33:10;10.67;;;8.83;;
6414;SDS011;3240;48.790;9.210;2022-09-25T09:35:40;15.07;;;9.60;;
6414;SDS011;3240;48.790;9.210;2022-09-25T09:38:10;12.07;;;8.97;;
6414;SDS011;3240;48.790;9.210;2022-09-25T09:44:27;9.97;;;8.20;;
6414;SDS011;3240;48.790;9.210;2022-09-25T09:46:11;10.40;;;8.10;;
6414;SDS011;3240;48.790;9.210;2022-09-25T09:48:37;11.50;;;8.30;;
6414;SDS011;3240;48.790;9.210;2022-09-25T09:51:07;10.50;;;7.77;;
6414;SDS011;3240;48.790;9.210;2022-09-25T09:53:36;9.73;;;7.53;;
6414;SDS011;3240;48.790;9.210;2022-09-25T09:56:03;10.13;;;7.70;;
6414;SDS011;3240;48.790;9.210;2022-09-25T09:58:39;10.87;;;7.23;;
6414;SDS011;3240;48.790;9.210;2022-09-25T10:01:02;9.57;;;7.30;;
6414;SDS011;3240;48.790;9.210;2022-09-25T10:03:32;11.03;;;7.57;;
6414;SDS011;3240;48.790;9.210;2022-09-25T10:06:00;11.70;;;7.67;;
6414;SDS011;3240;48.790;9.210;2022-09-25T10:08:26;10.93;;;7.47;;
6414;SDS011;3240;48.790;9.210;2022-09-25T10:10:54;11.67;;;6.87;;
6414;SDS011;3240;48.790;9.210;2022-09-25T10:13:24;8.33;;;6.37;;
6414;SDS011;3240;48.790;9.210;2022-09-25T10:15:53;10.80;;;7.73;;
6414;SDS011;3240;48.790;9.210;2022-09-25T10:18:20;8.30;;;6.60;;
6414;SDS011;3240;48.790;9.210;2022-09-25T10:20:50;8.30;;;7.13;;
6414;SDS011;3240;48.790;9.210;2022-09-25T10:23:20;9.53;;;7.30;;
6414;SDS011;3240;48.790;9.210;2022-09-25T10:25:44;8.40;;;7.10;;
6414;SDS011;3240;48.790;9.210;2022-09-25T10:30:46;8.10;;;6.37;;
6414;SDS011;3240;48.790;9.210;2022-09-25T10:33:16;8.10;;;6.33;;
6414;SDS011;3240;48.790;9.210;2022-09-25T10:35:43;12.60;;;8.40;;
6414;SDS011;3240;48.790;9.210;2022-09-25T10:40:44;10.10;;;6.93;;
6414;SDS011;3240;48.790;9.210;2022-09-25T10:43:17;9.10;;;7.00;;
6414;SDS011;3240;48.790;9.210;2022-09-25T10:45:44;7.97;;;7.17;;
6414;SDS011;3240;48.790;9.210;2022-09-25T10:53:27;13.90;;;8.20;;
6414;SDS011;3240;48.790;9.210;2022-09-25T10:55:56;8.97;;;7.50;;
6414;SDS011;3240;48.790;9.210;2022-09-25T10:58:24;9.80;;;7.90;;
6414;SDS011;3240;48.790;9.210;2022-09-25T11:00:53;13.00;;;7.97;;
6414;SDS011;3240;48.790;9.210;2022-09-25T11:03:21;13.30;;;7.60;;
6414;SDS011;3240;48.790;9.210;2022-09-25T11:05:49;11.23;;;8.27;;
6414;SDS011;3240;48.790;9.210;2022-09-25T11:08:16;11.20;;;8.13;;
6414;SDS011;3240;48.790;9.210;2022-09-25T11:10:52;16.47;;;9.43;;
6414;SDS011;3240;48.790;9.210;2022-09-25T11:13:23;12.70;;;8.87;;
6414;SDS011;3240;48.790;9.210;2022-09-25T11:15:52;17.43;;;11.83;;
6414;SDS011;3240;48.790;9.210;2022-09-25T11:21:00;20.07;;;12.20;;
6414;SDS011;3240;48.790;9.210;2022-09-25T11:23:33;17.10;;;12.50;;
6414;SDS011;3240;48.790;9.210;2022-09-25T11:26:07;21.13;;;13.20;;
6414;SDS011;3240;48.790;9.210;2022-09-25T11:28:39;25.30;;;12.97;;
6414;SDS011;3240;48.790;9.210;2022-09-25T11:31:13;18.53;;;13.17;;
6414;SDS011;3240;48.790;9.210;2022-09-25T11:33:42;21.27;;;14.20;;
6414;SDS011;3240;48.790;9.210;2022-09-25T11:36:09;19.20;;;14.30;;
6414;SDS011;3240;48.790;9.210;2022-09-25T11:38:39;22.60;;;14.63;;
6414;SDS011;3240;48.790;9.210;2022-09-25T11:41:16;23.77;;;13.93;;
6414;SDS011;3240;48.790;9.210;2022-09-25T11:43:46;23.50;;;13.90;;
6414;SDS011;3240;48.790;9.210;2022-09-25T11:46:18;23.10;;;15.17;;
6414;SDS011;3240;48.790;9.210;2022-09-25T11:48:49;21.00;;;13.93;;
6414;SDS011;3240;48.790;9.210;2022-09-25T11:51:22;22.17;;;15.20;;
6414;SDS011;3240;48.790;9.210;2022-09-25T11:53:51;21.20;;;14.07;;
6414;SDS011;3240;48.790;9.210;2022-09-25T11:56:25;20.80;;;13.87;;
6414;SDS011;3240;48.790;9.210;2022-09-25T11:59:01;22.70;;;13.60;;
6414;SDS011;3240;48.790;9.210;2022-09-25T12:01:28;18.83;;;13.90;;
6414;SDS011;3240;48.790;9.210;2022-09-25T12:04:13;19.47;;;13.30;;
6414;SDS011;3240;48.790;9.210;2022-09-25T12:11:36;22.80;;;13.47;;
6414;SDS011;3240;48.790;9.210;2022-09-25T12:14:04;22.27;;;14.40;;
6414;SDS011;3240;48.790;9.210;2022-09-25T12:16:37;21.90;;;13.27;;
6414;SDS011;3240;48.790;9.210;2022-09-25T12:19:25;20.10;;;12.97;;
6414;SDS011;3240;48.790;9.210;2022-09-25T12:21:52;18.57;;;12.70;;
6414;SDS011;3240;48.790;9.210;2022-09-25T12:26:55;19.47;;;12.57;;
6414;SDS011;3240;48.790;9.210;2022-09-25T12:29:25;16.23;;;12.53;;
6414;SDS011;3240;48.790;9.210;2022-09-25T12:31:52;20.50;;;13.93;;
6414;SDS011;3240;48.790;9.210;2022-09-25T12:34:26;22.43;;;13.53;;
6414;SDS011;3240;48.790;9.210;2022-09-25T12:36:55;20.20;;;13.23;;
6414;SDS011;3240;48.790;9.210;2022-09-25T12:39:30;18.83;;;13.20;;
6414;SDS011;3240;48.790;9.210;2022-09-25T12:42:01;18.17;;;13.73;;
6414;SDS011;3240;48.790;9.210;2022-09-25T12:44:31;21.60;;;13.50;;
6414;SDS011;3240;48.790;9.210;2022-09-25T12:46:59;18.63;;;13.13;;
6414;SDS011;3240;48.790;9.210;2022-09-25T12:49:26;19.17;;;13.10;;
6414;SDS011;3240;48.790;9.210;2022-09-25T12:51:54;19.50;;;12.47;;
6414;SDS011;3240;48.790;9.210;2022-09-25T12:54:29;18.73;;;13.50;;
6414;SDS011;3240;48.790;9.210;2022-09-25T12:57:01;21.93;;;13.80;;
6414;SDS011;3240;48.790;9.210;2022-09-25T12:59:44;14.57;;;10.97;;
6414;SDS011;3240;48.790;9.210;2022-09-25T13:04:52;17.20;;;10.97;;
6414;SDS011;3240;48.790;9.210;2022-09-25T13:07:18;14.23;;;10.17;;
6414;SDS011;3240;48.790;9.210;2022-09-25T13:09:47;14.23;;;10.97;;
6414;SDS011;3240;48.790;9.210;2022-09-25T13:17:46;13.03;;;9.43;;
6414;SDS011;3240;48.790;9.210;2022-09-25T13:22:48;13.13;;;8.97;;
6414;SDS011;3240;48.790;9.210;2022-09-25T13:25:16;11.67;;;9.13;;
6414;SDS011;3240;48.790;9.210;2022-09-25T13:27:45;10.43;;;7.60;;
6414;SDS011;3240;48.790;9.210;2022-09-25T13:30:19;12.37;;;8.80;;
6414;SDS011;3240;48.790;9.210;2022-09-25T13:32:47;9.70;;;8.10;;
6414;SDS011;3240;48.790;9.210;2022-09-25T13:35:16;9.83;;;7.77;;
6414;SDS011;3240;48.790;9.210;2022-09-25T13:37:43;10.20;;;8.17;;
6414;SDS011;3240;48.790;9.210;2022-09-25T13:40:15;12.87;;;8.80;;
6414;SDS011;3240;48.790;9.210;2022-09-25T13:43:14;11.47;;;8.07;;
6414;SDS011;3240;48.790;9.210;2022-09-25T13:45:29;12.73;;;8.30;;
6414;SDS011;3240;48.790;9.210;2022-09-25T13:47:55;11.20;;;7.90;;
6414;SDS011;3240;48.790;9.210;2022-09-25T13:50:25;12.07;;;9.60;;
6414;SDS011;3240;48.790;9.210;2022-09-25T13:52:59;12.73;;;8.27;;
6414;SDS011;3240;48.790;9.210;2022-09-25T13:55:22;9.37;;;7.93;;
6414;SDS011;3240;48.790;9.210;2022-09-25T13:58:00;10.87;;;8.40;;
6414;SDS011;3240;48.790;9.210;2022-09-25T14:00:51;13.27;;;9.10;;
6414;SDS011;3240;48.790;9.210;2022-09-25T14:05:54;10.50;;;7.40;;
6414;SDS011;3240;48.790;9.210;2022-09-25T14:08:22;13.80;;;8.40;;
6414;SDS011;3240;48.790;9.210;2022-09-25T14:10:50;12.30;;;7.17;;
6414;SDS011;3240;48.790;9.210;2022-09-25T14:13:18;14.70;;;7.97;;
6414;SDS011;3240;48.790;9.210;2022-09-25T14:15:46;13.70;;;7.57;;
6414;SDS011;3240;48.790;9.210;2022-09-25T14:18:16;8.87;;;7.97;;
6414;SDS011;3240;48.790;9.210;2022-09-25T14:20:44;15.27;;;6.80;;
6414;SDS011;3240;48.790;9.210;2022-09-25T14:23:14;8.13;;;6.73;;
6414;SDS011;3240;48.790;9.210;2022-09-25T14:25:41;9.07;;;7.47;;
6414;SDS011;3240;48.790;9.210;2022-09-25T14:28:16;11.80;;;6.77;;
6414;SDS011;3240;48.790;9.210;2022-09-25T14:30:47;8.40;;;6.37;;
6414;SDS011;3240;48.790;9.210;2022-09-25T14:33:24;8.20;;;6.10;;
6414;SDS011;3240;48.790;9.210;2022-09-25T14:35:55;10.60;;;5.60;;
6414;SDS011;3240;48.790;9.210;2022-09-25T14:41:08;7.20;;;5.80;;
6414;SDS011;3240;48.790;9.210;2022-09-25T14:43:39;6.93;;;5.90;;
6414;SDS011;3240;48.790;9.210;2022-09-25T14:46:08;8.23;;;6.40;;
6414;SDS011;3240;48.790;9.210;2022-09-25T14:48:37;11.40;;;6.83;;
6414;SDS011;3240;48.790;9.210;2022-09-25T14:51:05;8.90;;;6.53;;
6414;SDS011;3240;48.790;9.210;2022-09-25T14:53:34;7.90;;;6.10;;
6414;SDS011;3240;48.790;9.210;2022-09-25T14:56:00;8.17;;;6.10;;
6414;SDS011;3240;48.790;9.210;2022-09-25T14:58:29;9.00;;;5.90;;
6414;SDS011;3240;48.790;9.210;2022-09-25T15:00:58;8.23;;;5.70;;
6414;SDS011;3240;48.790;9.210;2022-09-25T15:03:28;9.00;;;6.30;;
6414;SDS011;3240;48.790;9.210;2022-09-25T15:05:54;7.03;;;5.30;;
6414;SDS011;3240;48.790;9.210;2022-09-25T15:08:29;7.07;;;5.40;;
6414;SDS011;3240;48.790;9.210;2022-09-25T15:13:25;7.83;;;5.57;;
6414;SDS011;3240;48.790;9.210;2022-09-25T15:15:54;6.90;;;5.10;;
6414;SDS011;3240;48.790;9.210;2022-09-25T15:18:27;6.13;;;5.07;;
6414;SDS011;3240;48.790;9.210;2022-09-25T15:20:55;6.63;;;4.47;;
6414;SDS011;3240;48.790;9.210;2022-09-25T15:23:23;7.33;;;5.23;;
6414;SDS011;3240;48.790;9.210;2022-09-25T15:25:54;6.80;;;4.90;;
6414;SDS011;3240;48.790;9.210;2022-09-25T15:28:23;7.90;;;4.90;;
6414;SDS011;3240;48.790;9.210;2022-09-25T15:30:53;12.03;;;6.23;;
6414;SDS011;3240;48.790;9.210;2022-09-25T15:33:21;8.53;;;5.20;;
6414;SDS011;3240;48.790;9.210;2022-09-25T15:35:53;5.43;;;4.60;;
6414;SDS011;3240;48.790;9.210;2022-09-25T15:38:26;6.57;;;4.57;;
6414;SDS011;3240;48.790;9.210;2022-09-25T15:40:54;7.23;;;4.67;;
6414;SDS011;3240;48.790;9.210;2022-09-25T15:43:21;6.70;;;5.10;;
6414;SDS011;3240;48.790;9.210;2022-09-25T15:48:33;7.23;;;4.70;;
6414;SDS011;3240;48.790;9.210;2022-09-25T15:51:02;6.37;;;5.25;;
6414;SDS011;3240;48.790;9.210;2022-09-25T15:53:30;6.63;;;5.23;;
6414;SDS011;3240;48.790;9.210;2022-09-25T15:58:44;8.87;;;6.13;;
6414;SDS011;3240;48.790;9.210;2022-09-25T16:01:11;8.63;;;5.97;;
6414;SDS011;3240;48.790;9.210;2022-09-25T16:03:47;8.90;;;5.93;;